Time;durP1;ratioP1;P1;durP2;ratioP2;P2;SDS_P1;SDS_P2;PMS_P1;PMS_P2;Temp;Humidity;BMP_temperature;BMP_pressure;BME280_temperature;BME280_humidity;BME280_pressure;Samples;Min_cycle;Max_cycle;Signal;HPM_P1;HPM_P2
2022/09/02 00:00:33;;;;;;;7.30;3.65;;;;;;;;;;7375440;19;20006;-77
2022/09/02 00:02:59;;;;;;;11.27;3.17;;;;;;;;;;7357684;19;20036;-77
2022/09/02 00:05:24;;;;;;;6.93;3.00;;;;;;;;;;7369773;19;20006;-77
2022/09/02 00:07:49;;;;;;;9.55;3.42;;;;;;;;;;7376670;19;20017;-76
2022/09/02 00:10:14;;;;;;;8.03;3.47;;;;;;;;;;7368412;19;20470;-77
2022/09/02 00:12:40;;;;;;;6.73;3.13;;;;;;;;;;7378558;19;20276;-77
2022/09/02 00:15:05;;;;;;;11.13;3.63;;;;;;;;;;7371975;19;20757;-77
2022/09/02 00:17:30;;;;;;;7.13;3.33;;;;;;;;;;7370177;19;20006;-77
2022/09/02 00:19:55;;;;;;;5.83;3.33;;;;;;;;;;7378722;19;20006;-78
2022/09/02 00:22:21;;;;;;;8.07;3.80;;;;;;;;;;7380255;19;20275;-77
2022/09/02 00:24:46;;;;;;;7.47;3.50;;;;;;;;;;7375306;19;20914;-77
2022/09/02 00:27:11;;;;;;;8.87;3.47;;;;;;;;;;7378163;19;20007;-77
2022/09/02 00:29:38;;;;;;;9.93;3.63;;;;;;;;;;7379814;19;20271;-77
2022/09/02 00:32:03;;;;;;;7.00;3.67;;;;;;;;;;7365719;19;20021;-78
2022/09/02 00:34:29;;;;;;;10.63;3.53;;;;;;;;;;7376986;19;20006;-77
2022/09/02 00:36:54;;;;;;;7.40;3.47;;;;;;;;;;7376926;19;20035;-78
2022/09/02 00:39:19;;;;;;;9.43;4.05;;;;;;;;;;7374503;19;20299;-76
2022/09/02 00:41:44;;;;;;;7.45;3.45;;;;;;;;;;7371102;19;20010;-77
2022/09/02 00:44:11;;;;;;;9.30;3.60;;;;;;;;;;7373321;19;20035;-77
2022/09/02 00:46:37;;;;;;;5.85;3.22;;;;;;;;;;7340696;19;20025;-76
2022/09/02 00:49:08;;;;;;;9.80;3.67;;;;;;;;;;7377146;19;20082;-77
2022/09/02 00:51:39;;;;;;;10.32;3.55;;;;;;;;;;7376914;19;20015;-76
2022/09/02 00:54:05;;;;;;;7.70;3.38;;;;;;;;;;7367479;19;20493;-77
2022/09/02 00:56:31;;;;;;;7.10;3.67;;;;;;;;;;7367509;19;20046;-77
2022/09/02 00:58:56;;;;;;;7.10;3.45;;;;;;;;;;7366771;19;20042;-77
2022/09/02 01:01:22;;;;;;;6.47;3.45;;;;;;;;;;7358561;19;20006;-77
2022/09/02 01:03:48;;;;;;;7.85;3.88;;;;;;;;;;7369248;19;20046;-77
2022/09/02 01:06:14;;;;;;;6.18;3.38;;;;;;;;;;7376664;19;20025;-77
2022/09/02 01:08:41;;;;;;;6.28;3.33;;;;;;;;;;7375997;19;20006;-77
2022/09/02 01:11:06;;;;;;;10.98;3.35;;;;;;;;;;7369802;19;20045;-76
2022/09/02 01:13:35;;;;;;;8.18;3.50;;;;;;;;;;7370889;19;20006;-77
2022/09/02 01:16:04;;;;;;;8.85;3.95;;;;;;;;;;7354676;19;20064;-77
2022/09/02 01:18:30;;;;;;;9.18;3.85;;;;;;;;;;7373620;19;20141;-76
2022/09/02 01:20:56;;;;;;;7.95;3.22;;;;;;;;;;7374339;19;20121;-77
2022/09/02 01:23:21;;;;;;;6.20;3.42;;;;;;;;;;7376432;19;20017;-77
2022/09/02 01:25:47;;;;;;;8.17;3.53;;;;;;;;;;7369602;19;20007;-77
2022/09/02 01:28:14;;;;;;;7.35;3.78;;;;;;;;;;7362822;19;20262;-77
2022/09/02 01:30:41;;;;;;;5.60;3.20;;;;;;;;;;7362982;19;20112;-77
2022/09/02 01:33:06;;;;;;;7.22;3.50;;;;;;;;;;7376010;19;20010;-77
2022/09/02 01:35:31;;;;;;;7.93;4.28;;;;;;;;;;7376041;19;20008;-77
2022/09/02 01:37:57;;;;;;;7.15;3.58;;;;;;;;;;7370630;19;20463;-78
2022/09/02 01:40:23;;;;;;;7.00;3.90;;;;;;;;;;7371596;19;20078;-77
2022/09/02 01:42:51;;;;;;;6.53;3.60;;;;;;;;;;7375153;19;20027;-77
2022/09/02 01:45:17;;;;;;;7.28;3.58;;;;;;;;;;7372826;19;20069;-76
2022/09/02 01:47:42;;;;;;;10.02;3.97;;;;;;;;;;7370863;19;20070;-78
2022/09/02 01:50:08;;;;;;;8.82;4.20;;;;;;;;;;7376441;19;20002;-77
2022/09/02 01:52:33;;;;;;;7.68;3.88;;;;;;;;;;7363745;19;20021;-76
2022/09/02 01:54:59;;;;;;;10.52;4.05;;;;;;;;;;7370493;19;20345;-77
2022/09/02 01:57:24;;;;;;;9.07;4.05;;;;;;;;;;7371457;19;20027;-76
2022/09/02 01:59:50;;;;;;;7.30;3.70;;;;;;;;;;7370181;19;20376;-77
2022/09/02 02:02:15;;;;;;;8.27;4.18;;;;;;;;;;7360161;19;20014;-77
2022/09/02 02:04:40;;;;;;;7.40;3.60;;;;;;;;;;7374610;19;20020;-77
2022/09/02 02:07:05;;;;;;;7.77;3.70;;;;;;;;;;7376149;19;20271;-77
2022/09/02 02:09:30;;;;;;;7.03;3.45;;;;;;;;;;7359626;19;20025;-77
2022/09/02 02:11:56;;;;;;;10.37;3.93;;;;;;;;;;7374614;19;20033;-77
2022/09/02 02:14:21;;;;;;;8.77;3.83;;;;;;;;;;7377017;19;20070;-76
2022/09/02 02:16:46;;;;;;;8.52;3.70;;;;;;;;;;7368096;19;20334;-77
2022/09/02 02:19:12;;;;;;;10.43;4.22;;;;;;;;;;7373448;19;20017;-77
2022/09/02 02:21:37;;;;;;;8.63;3.87;;;;;;;;;;7379070;19;20482;-77
2022/09/02 02:24:02;;;;;;;6.83;3.20;;;;;;;;;;7366833;19;20907;-77
2022/09/02 02:26:28;;;;;;;6.95;3.58;;;;;;;;;;7369624;19;20003;-77
2022/09/02 02:28:54;;;;;;;8.57;3.65;;;;;;;;;;7375563;19;20022;-77
2022/09/02 02:31:19;;;;;;;10.00;3.60;;;;;;;;;;7358621;19;20848;-77
2022/09/02 02:33:45;;;;;;;6.80;3.63;;;;;;;;;;7377163;19;20011;-76
2022/09/02 02:36:10;;;;;;;7.65;3.70;;;;;;;;;;7365435;19;20062;-77
2022/09/02 02:38:36;;;;;;;8.65;4.20;;;;;;;;;;7374262;19;20813;-77
2022/09/02 02:41:03;;;;;;;9.95;3.97;;;;;;;;;;7367678;19;20023;-77
2022/09/02 02:43:29;;;;;;;10.13;4.25;;;;;;;;;;7375286;19;20017;-77
2022/09/02 02:45:54;;;;;;;10.32;4.13;;;;;;;;;;7362723;19;20343;-77
2022/09/02 02:48:20;;;;;;;10.43;3.97;;;;;;;;;;7373405;19;20498;-76
2022/09/02 02:50:45;;;;;;;9.70;3.95;;;;;;;;;;7378137;19;20014;-77
2022/09/02 02:53:11;;;;;;;6.90;4.03;;;;;;;;;;7365774;19;20507;-77
2022/09/02 02:55:37;;;;;;;9.05;3.67;;;;;;;;;;7372650;19;20014;-76
2022/09/02 02:58:02;;;;;;;9.85;4.18;;;;;;;;;;7371912;19;20294;-76
2022/09/02 03:00:28;;;;;;;8.52;3.83;;;;;;;;;;7364231;19;20527;-77
2022/09/02 03:02:57;;;;;;;6.45;3.60;;;;;;;;;;7352887;19;20010;-76
2022/09/02 03:05:23;;;;;;;8.45;3.80;;;;;;;;;;7365652;19;20010;-77
2022/09/02 03:07:48;;;;;;;6.00;3.53;;;;;;;;;;7374461;19;20001;-76
2022/09/02 03:10:13;;;;;;;8.02;3.35;;;;;;;;;;7359809;19;20340;-77
2022/09/02 03:12:39;;;;;;;6.73;3.30;;;;;;;;;;7370738;19;20010;-77
2022/09/02 03:15:05;;;;;;;6.93;3.50;;;;;;;;;;7362744;19;20598;-77
2022/09/02 03:17:31;;;;;;;6.95;3.60;;;;;;;;;;7360676;19;20050;-77
2022/09/02 03:19:58;;;;;;;7.20;3.67;;;;;;;;;;7375270;19;20007;-76
2022/09/02 03:22:23;;;;;;;9.43;3.80;;;;;;;;;;7371592;19;20376;-77
2022/09/02 03:24:48;;;;;;;9.15;3.88;;;;;;;;;;7373328;19;20287;-78
2022/09/02 03:27:13;;;;;;;6.10;3.43;;;;;;;;;;7366210;19;20014;-77
2022/09/02 03:29:38;;;;;;;10.40;4.07;;;;;;;;;;7374455;19;20016;-76
2022/09/02 03:32:04;;;;;;;7.73;3.60;;;;;;;;;;7368767;19;20015;-76
2022/09/02 03:34:30;;;;;;;7.22;3.75;;;;;;;;;;7376197;19;20276;-77
2022/09/02 03:36:55;;;;;;;10.70;3.95;;;;;;;;;;7375761;19;20359;-76
2022/09/02 03:39:21;;;;;;;6.03;3.85;;;;;;;;;;7380919;19;20094;-76
2022/09/02 03:41:49;;;;;;;6.33;3.53;;;;;;;;;;7374803;19;20490;-77
2022/09/02 03:44:14;;;;;;;7.07;3.80;;;;;;;;;;7382734;19;20031;-77
2022/09/02 03:46:39;;;;;;;5.97;3.33;;;;;;;;;;7377950;19;20578;-77
2022/09/02 03:49:04;;;;;;;7.97;3.80;;;;;;;;;;7373906;19;20007;-76
2022/09/02 03:51:30;;;;;;;9.77;4.28;;;;;;;;;;7375406;19;20375;-76
2022/09/02 03:53:55;;;;;;;9.02;3.95;;;;;;;;;;7368729;19;20335;-77
2022/09/02 03:56:21;;;;;;;5.83;3.30;;;;;;;;;;7370010;19;20430;-78
2022/09/02 03:58:48;;;;;;;7.38;3.97;;;;;;;;;;7378346;19;20247;-76
2022/09/02 04:01:18;;;;;;;7.90;3.75;;;;;;;;;;7379280;19;20024;-77
2022/09/02 04:03:43;;;;;;;6.15;3.30;;;;;;;;;;7385536;19;20017;-76
2022/09/02 04:06:10;;;;;;;6.77;3.60;;;;;;;;;;7381059;19;20664;-77
2022/09/02 04:08:36;;;;;;;6.80;3.92;;;;;;;;;;7383218;19;20659;-76
2022/09/02 04:11:08;;;;;;;8.05;3.88;;;;;;;;;;7368124;19;20002;-76
2022/09/02 04:13:33;;;;;;;7.18;3.83;;;;;;;;;;7380390;19;20038;-76
2022/09/02 04:15:59;;;;;;;7.20;3.50;;;;;;;;;;7375309;19;20006;-77
2022/09/02 04:18:24;;;;;;;7.70;3.77;;;;;;;;;;7363352;19;20010;-76
2022/09/02 04:20:49;;;;;;;7.80;3.47;;;;;;;;;;7369487;19;20314;-75
2022/09/02 04:23:14;;;;;;;8.25;3.75;;;;;;;;;;7362097;19;20006;-76
2022/09/02 04:25:40;;;;;;;7.30;3.65;;;;;;;;;;7377364;19;20011;-76
2022/09/02 04:28:06;;;;;;;7.13;3.85;;;;;;;;;;7379863;19;20010;-76
2022/09/02 04:30:31;;;;;;;8.82;3.70;;;;;;;;;;7359648;19;20676;-76
2022/09/02 04:32:56;;;;;;;7.63;3.33;;;;;;;;;;7372468;19;20048;-76
2022/09/02 04:35:21;;;;;;;6.63;3.70;;;;;;;;;;7381987;19;20601;-77
2022/09/02 04:37:47;;;;;;;8.68;3.83;;;;;;;;;;7381371;19;20015;-77
2022/09/02 04:40:13;;;;;;;7.55;4.10;;;;;;;;;;7365377;19;20034;-77
2022/09/02 04:42:38;;;;;;;7.82;3.65;;;;;;;;;;7374713;19;20364;-76
2022/09/02 04:45:04;;;;;;;6.20;3.67;;;;;;;;;;7377931;19;20006;-76
2022/09/02 04:47:29;;;;;;;9.07;4.15;;;;;;;;;;7362976;19;20259;-76
2022/09/02 04:49:54;;;;;;;8.88;3.88;;;;;;;;;;7380681;19;20031;-76
2022/09/02 04:52:20;;;;;;;9.35;3.85;;;;;;;;;;7379034;19;20059;-77
2022/09/02 04:54:45;;;;;;;7.15;3.75;;;;;;;;;;7369276;19;20009;-78
2022/09/02 04:57:11;;;;;;;7.07;3.55;;;;;;;;;;7374754;19;20042;-77
2022/09/02 04:59:36;;;;;;;6.47;3.60;;;;;;;;;;7378674;19;20030;-77
2022/09/02 05:02:02;;;;;;;6.93;3.67;;;;;;;;;;7357062;19;20123;-76
2022/09/02 05:04:29;;;;;;;6.55;3.45;;;;;;;;;;7380314;19;20006;-76
2022/09/02 05:06:56;;;;;;;7.15;3.60;;;;;;;;;;7378162;19;20015;-77
2022/09/02 05:09:22;;;;;;;7.25;3.13;;;;;;;;;;7376758;19;21404;-76
2022/09/02 05:11:47;;;;;;;9.30;3.50;;;;;;;;;;7368217;19;20018;-77
2022/09/02 05:14:15;;;;;;;6.13;3.60;;;;;;;;;;7375324;19;20306;-77
2022/09/02 05:16:41;;;;;;;6.80;3.30;;;;;;;;;;7370411;19;20018;-77
2022/09/02 05:19:08;;;;;;;7.35;3.35;;;;;;;;;;7364930;19;20031;-76
2022/09/02 05:21:34;;;;;;;7.07;3.88;;;;;;;;;;7375389;19;20043;-76
2022/09/02 05:24:00;;;;;;;7.53;3.58;;;;;;;;;;7369640;19;20010;-77
2022/09/02 05:26:25;;;;;;;7.15;3.65;;;;;;;;;;7371753;19;20014;-77
2022/09/02 05:28:50;;;;;;;9.53;3.73;;;;;;;;;;7374965;19;20354;-76
2022/09/02 05:31:16;;;;;;;6.77;3.40;;;;;;;;;;7374446;19;22665;-77
2022/09/02 05:33:43;;;;;;;6.30;3.47;;;;;;;;;;7378311;19;20264;-78
2022/09/02 05:36:11;;;;;;;6.72;3.35;;;;;;;;;;7372758;19;20010;-77
2022/09/02 05:38:36;;;;;;;8.75;3.28;;;;;;;;;;7372203;19;20090;-76
2022/09/02 05:41:06;;;;;;;5.60;3.35;;;;;;;;;;7362732;19;20018;-77
2022/09/02 05:43:33;;;;;;;7.28;3.30;;;;;;;;;;7367303;19;20010;-76
2022/09/02 05:46:02;;;;;;;6.93;3.78;;;;;;;;;;7363730;19;20026;-77
2022/09/02 05:51:11;;;;;;;8.40;3.25;;;;;;;;;;7375736;19;20029;-77
2022/09/02 05:53:36;;;;;;;10.10;3.40;;;;;;;;;;7345273;19;20006;-76
2022/09/02 05:56:05;;;;;;;8.63;3.40;;;;;;;;;;7353375;19;20115;-77
2022/09/02 05:58:31;;;;;;;6.68;3.45;;;;;;;;;;7360540;19;20007;-77
2022/09/02 06:00:56;;;;;;;7.07;3.47;;;;;;;;;;7338090;19;20010;-77
2022/09/02 06:03:21;;;;;;;6.70;3.05;;;;;;;;;;7341013;19;20018;-77
2022/09/02 06:05:56;;;;;;;8.70;3.70;;;;;;;;;;7330038;19;20382;-77
2022/09/02 06:08:21;;;;;;;9.82;3.40;;;;;;;;;;7348401;19;20034;-77
2022/09/02 06:10:46;;;;;;;9.52;3.35;;;;;;;;;;7371886;19;20081;-77
2022/09/02 06:13:12;;;;;;;8.13;3.00;;;;;;;;;;7356064;19;20078;-77
2022/09/02 06:15:43;;;;;;;8.70;3.30;;;;;;;;;;7359138;19;20011;-77
2022/09/02 06:18:09;;;;;;;8.00;3.28;;;;;;;;;;7375324;19;20276;-77
2022/09/02 06:20:38;;;;;;;7.13;3.17;;;;;;;;;;7372653;19;20003;-77
2022/09/02 06:23:03;;;;;;;5.63;3.05;;;;;;;;;;7359927;19;20489;-77
2022/09/02 06:25:28;;;;;;;7.85;3.00;;;;;;;;;;7371344;19;20006;-77
2022/09/02 06:27:53;;;;;;;8.43;3.20;;;;;;;;;;7346327;19;20458;-76
2022/09/02 06:30:18;;;;;;;7.60;2.93;;;;;;;;;;7361971;19;20321;-77
2022/09/02 06:32:44;;;;;;;6.70;2.80;;;;;;;;;;7371934;19;20011;-76
2022/09/02 06:35:09;;;;;;;8.73;2.88;;;;;;;;;;7378183;19;20010;-75
2022/09/02 06:37:34;;;;;;;10.00;2.63;;;;;;;;;;7381367;19;20470;-75
2022/09/02 06:40:00;;;;;;;8.27;3.55;;;;;;;;;;7371057;19;20014;-75
2022/09/02 06:42:25;;;;;;;5.70;2.78;;;;;;;;;;7360277;19;20031;-74
2022/09/02 06:44:50;;;;;;;7.05;2.60;;;;;;;;;;7380617;19;20018;-75
2022/09/02 06:47:16;;;;;;;7.67;2.57;;;;;;;;;;7372227;19;20074;-76
2022/09/02 06:49:41;;;;;;;7.20;3.05;;;;;;;;;;7365037;19;20010;-74
2022/09/02 06:52:07;;;;;;;6.83;2.83;;;;;;;;;;7372241;19;20002;-74
2022/09/02 06:54:32;;;;;;;5.50;2.25;;;;;;;;;;7380551;19;20018;-74
2022/09/02 06:56:58;;;;;;;6.07;3.00;;;;;;;;;;7364668;19;20014;-75
2022/09/02 06:59:23;;;;;;;7.00;2.78;;;;;;;;;;7382281;19;20340;-74
2022/09/02 07:01:48;;;;;;;9.13;2.83;;;;;;;;;;7374371;19;20018;-75
2022/09/02 07:06:58;;;;;;;6.00;2.47;;;;;;;;;;7376368;19;20027;-75
2022/09/02 07:09:29;;;;;;;5.63;2.30;;;;;;;;;;7366765;19;20053;-73
2022/09/02 07:11:55;;;;;;;5.22;2.25;;;;;;;;;;7365161;19;20262;-75
2022/09/02 07:14:20;;;;;;;4.20;1.88;;;;;;;;;;7384413;19;20394;-75
2022/09/02 07:16:47;;;;;;;6.03;2.30;;;;;;;;;;7377756;19;20034;-74
2022/09/02 07:19:13;;;;;;;4.25;1.80;;;;;;;;;;7382269;19;20117;-74
2022/09/02 07:21:40;;;;;;;5.22;1.75;;;;;;;;;;7389726;19;20024;-75
2022/09/02 07:24:06;;;;;;;4.25;1.83;;;;;;;;;;7382931;19;20438;-75
2022/09/02 07:26:31;;;;;;;5.57;2.20;;;;;;;;;;7388125;19;20010;-74
2022/09/02 07:28:57;;;;;;;7.40;2.25;;;;;;;;;;7376851;19;20471;-75
2022/09/02 07:31:22;;;;;;;5.93;2.00;;;;;;;;;;7373202;19;20395;-74
2022/09/02 07:33:47;;;;;;;6.30;1.98;;;;;;;;;;7383062;19;20002;-74
2022/09/02 07:36:13;;;;;;;7.80;1.85;;;;;;;;;;7379425;19;20014;-75
2022/09/02 07:38:39;;;;;;;4.93;1.98;;;;;;;;;;7384663;19;20026;-73
2022/09/02 07:41:05;;;;;;;9.30;1.90;;;;;;;;;;7373708;19;20014;-73
2022/09/02 07:43:32;;;;;;;4.22;1.70;;;;;;;;;;7375083;19;20015;-73
2022/09/02 07:45:57;;;;;;;7.20;1.77;;;;;;;;;;7380617;19;20018;-74
2022/09/02 07:48:23;;;;;;;5.90;1.77;;;;;;;;;;7384647;19;20519;-73
2022/09/02 07:50:48;;;;;;;6.85;2.50;;;;;;;;;;7372847;19;20003;-73
2022/09/02 07:53:15;;;;;;;5.40;2.22;;;;;;;;;;7385643;19;20074;-74
2022/09/02 07:55:40;;;;;;;5.93;1.80;;;;;;;;;;7382519;19;20404;-74
2022/09/02 07:58:05;;;;;;;4.40;1.60;;;;;;;;;;7367225;19;20002;-75
2022/09/02 08:00:31;;;;;;;8.43;1.90;;;;;;;;;;7365837;19;20713;-74
2022/09/02 08:02:57;;;;;;;4.45;1.70;;;;;;;;;;7371607;19;20013;-73
2022/09/02 08:05:22;;;;;;;4.97;1.80;;;;;;;;;;7375251;19;20015;-74
2022/09/02 08:07:47;;;;;;;4.88;1.77;;;;;;;;;;7370123;19;20003;-73
2022/09/02 08:10:13;;;;;;;4.25;1.67;;;;;;;;;;7363664;19;20042;-74
2022/09/02 08:12:42;;;;;;;5.38;1.80;;;;;;;;;;7364656;19;20013;-73
2022/09/02 08:15:09;;;;;;;6.15;1.88;;;;;;;;;;7380782;19;20561;-73
2022/09/02 08:17:34;;;;;;;4.50;2.00;;;;;;;;;;7380505;19;20010;-75
2022/09/02 08:19:59;;;;;;;5.10;1.97;;;;;;;;;;7383368;19;20068;-73
2022/09/02 08:22:25;;;;;;;4.47;1.83;;;;;;;;;;7388710;19;20252;-74
2022/09/02 08:24:51;;;;;;;3.80;1.55;;;;;;;;;;7379197;19;20496;-73
2022/09/02 08:27:17;;;;;;;4.38;1.60;;;;;;;;;;7387647;19;20014;-74
2022/09/02 08:29:42;;;;;;;4.35;1.75;;;;;;;;;;7377755;19;19998;-74
2022/09/02 08:32:08;;;;;;;3.55;1.60;;;;;;;;;;7381673;19;20006;-73
2022/09/02 08:34:33;;;;;;;4.32;2.03;;;;;;;;;;7383388;19;20091;-72
2022/09/02 08:36:59;;;;;;;4.65;1.52;;;;;;;;;;7374159;19;20011;-72
2022/09/02 08:39:24;;;;;;;7.03;1.70;;;;;;;;;;7382931;19;20010;-72
2022/09/02 08:41:55;;;;;;;4.35;1.48;;;;;;;;;;7383486;19;20355;-73
2022/09/02 08:44:22;;;;;;;4.00;1.42;;;;;;;;;;7368995;19;20440;-73
2022/09/02 08:46:49;;;;;;;5.13;1.55;;;;;;;;;;7381837;19;20321;-72
2022/09/02 08:49:24;;;;;;;4.50;1.80;;;;;;;;;;7374074;19;20018;-72
2022/09/02 08:51:50;;;;;;;3.65;1.42;;;;;;;;;;7384203;19;20013;-73
2022/09/02 08:54:29;;;;;;;5.25;1.80;;;;;;;;;;7380376;19;20007;-72
2022/09/02 08:56:54;;;;;;;6.18;1.58;;;;;;;;;;7372008;19;20015;-73
2022/09/02 08:59:26;;;;;;;5.75;1.40;;;;;;;;;;7377592;19;20009;-73
2022/09/02 09:01:51;;;;;;;4.80;1.48;;;;;;;;;;7371684;19;20015;-73
2022/09/02 09:04:25;;;;;;;4.67;1.70;;;;;;;;;;7361827;19;20017;-74
2022/09/02 09:06:51;;;;;;;3.97;1.52;;;;;;;;;;7372310;19;20021;-73
2022/09/02 09:09:34;;;;;;;5.97;1.90;;;;;;;;;;7375929;19;20002;-73
2022/09/02 09:12:00;;;;;;;;;;;;;;;;;;7369744;19;20531;-74
2022/09/02 09:14:43;;;;;;;3.90;1.60;;;;;;;;;;7365282;19;20295;-73
2022/09/02 09:17:25;;;;;;;4.15;1.45;;;;;;;;;;7366614;19;20027;-74
2022/09/02 09:19:52;;;;;;;3.55;1.45;;;;;;;;;;7380234;19;20015;-74
2022/09/02 09:22:19;;;;;;;5.53;1.73;;;;;;;;;;7370378;19;20006;-73
2022/09/02 09:24:44;;;;;;;4.10;1.35;;;;;;;;;;7380369;19;20516;-74
2022/09/02 09:27:17;;;;;;;4.57;1.55;;;;;;;;;;7382196;19;20015;-75
2022/09/02 09:29:43;;;;;;;4.07;1.43;;;;;;;;;;7367841;19;20006;-74
2022/09/02 09:32:27;;;;;;;4.97;1.60;;;;;;;;;;7372396;19;20002;-71
2022/09/02 09:35:00;;;;;;;4.00;1.33;;;;;;;;;;7363198;19;20010;-74
2022/09/02 09:37:36;;;;;;;5.82;1.83;;;;;;;;;;7381267;19;20522;-73
2022/09/02 09:40:20;;;;;;;7.93;1.50;;;;;;;;;;7374836;19;20850;-72
2022/09/02 09:42:46;;;;;;;10.52;1.98;;;;;;;;;;7375423;19;20010;-73
2022/09/02 09:45:20;;;;;;;4.10;1.48;;;;;;;;;;7372055;19;20359;-73
2022/09/02 09:48:05;;;;;;;3.38;1.20;;;;;;;;;;7373128;19;20070;-72
2022/09/02 09:50:30;;;;;;;4.57;1.55;;;;;;;;;;7380206;19;20018;-73
2022/09/02 09:53:12;;;;;;;3.60;1.50;;;;;;;;;;7370770;19;20003;-75
2022/09/02 09:55:48;;;;;;;4.57;1.20;;;;;;;;;;7378652;19;20021;-76
2022/09/02 09:58:13;;;;;;;4.20;1.40;;;;;;;;;;7378473;19;20010;-73
2022/09/02 10:00:39;;;;;;;4.17;1.63;;;;;;;;;;7372447;19;20066;-72
2022/09/02 10:03:05;;;;;;;3.85;1.50;;;;;;;;;;7369181;19;20013;-74
2022/09/02 10:05:35;;;;;;;4.45;1.40;;;;;;;;;;7376921;19;20482;-73
2022/09/02 10:08:18;;;;;;;3.85;1.33;;;;;;;;;;7374561;19;21071;-73
2022/09/02 10:10:57;;;;;;;3.88;1.30;;;;;;;;;;7372909;19;20251;-73
2022/09/02 10:13:24;;;;;;;4.22;1.40;;;;;;;;;;7368622;19;20014;-72
2022/09/02 10:15:55;;;;;;;4.63;1.40;;;;;;;;;;7372604;19;20011;-73
2022/09/02 10:18:28;;;;;;;5.97;1.70;;;;;;;;;;7376480;19;20014;-74
2022/09/02 10:20:58;;;;;;;3.78;1.23;;;;;;;;;;7367461;19;20018;-75
2022/09/02 10:23:46;;;;;;;4.68;1.17;;;;;;;;;;7376909;19;20017;-74
2022/09/02 10:26:14;;;;;;;3.50;1.13;;;;;;;;;;7378300;19;20134;-75
2022/09/02 10:29:08;;;;;;;4.15;1.23;;;;;;;;;;7379338;19;20023;-73
2022/09/02 10:31:45;;;;;;;3.25;1.27;;;;;;;;;;7371418;19;20010;-73
2022/09/02 10:34:19;;;;;;;5.07;1.40;;;;;;;;;;7374102;19;20818;-74
2022/09/02 10:37:01;;;;;;;6.97;1.50;;;;;;;;;;7377559;19;20011;-73
2022/09/02 10:39:35;;;;;;;5.60;1.30;;;;;;;;;;7365163;19;21518;-74
2022/09/02 10:42:14;;;;;;;4.05;1.58;;;;;;;;;;7380744;19;20269;-73
2022/09/02 10:44:48;;;;;;;5.63;1.23;;;;;;;;;;7374550;19;20037;-75
2022/09/02 10:47:13;;;;;;;;;;;;;;;;;;7353242;19;20022;-75
2022/09/02 10:49:47;;;;;;;6.93;1.77;;;;;;;;;;7365943;19;19918;-74
2022/09/02 10:52:12;;;;;;;3.10;1.40;;;;;;;;;;7366271;19;20473;-76
2022/09/02 10:54:44;;;;;;;3.67;1.40;;;;;;;;;;7337071;19;20003;-74
2022/09/02 10:57:22;;;;;;;4.68;1.40;;;;;;;;;;7356694;19;20010;-75
2022/09/02 10:59:50;;;;;;;5.90;1.50;;;;;;;;;;7339972;19;20058;-73
2022/09/02 11:02:34;;;;;;;5.55;1.48;;;;;;;;;;7354728;19;20006;-73
2022/09/02 11:05:03;;;;;;;6.03;1.50;;;;;;;;;;7373978;19;20087;-74
2022/09/02 11:07:50;;;;;;;4.18;1.30;;;;;;;;;;7366892;19;20105;-75
2022/09/02 11:10:30;;;;;;;3.90;1.25;;;;;;;;;;7371045;19;20258;-73
2022/09/02 11:13:10;;;;;;;3.42;1.25;;;;;;;;;;7358937;19;20506;-74
2022/09/02 11:15:38;;;;;;;3.83;1.20;;;;;;;;;;7365752;19;20428;-74
2022/09/02 11:18:43;;;;;;;6.95;1.42;;;;;;;;;;7359612;19;20003;-77
2022/09/02 11:21:16;;;;;;;4.85;1.23;;;;;;;;;;7359782;19;20608;-73
2022/09/02 11:23:45;;;;;;;3.85;1.33;;;;;;;;;;7346438;19;20035;-76
2022/09/02 11:26:15;;;;;;;4.55;1.38;;;;;;;;;;7354097;19;20014;-74
2022/09/02 11:28:45;;;;;;;4.68;1.50;;;;;;;;;;7359956;19;20006;-74
2022/09/02 11:31:29;;;;;;;4.05;1.45;;;;;;;;;;7357023;19;20074;-74
2022/09/02 11:33:57;;;;;;;5.45;1.50;;;;;;;;;;7369946;19;20616;-76
2022/09/02 11:36:23;;;;;;;6.10;1.63;;;;;;;;;;7372781;19;20035;-74
2022/09/02 11:38:52;;;;;;;3.58;1.38;;;;;;;;;;7376890;19;21760;-76
2022/09/02 11:41:36;;;;;;;2.65;1.17;;;;;;;;;;7368366;19;20370;-75
2022/09/02 11:44:22;;;;;;;5.43;1.60;;;;;;;;;;7367056;19;20039;-74
2022/09/02 11:46:57;;;;;;;6.72;1.88;;;;;;;;;;7357496;19;20380;-75
2022/09/02 11:49:45;;;;;;;5.13;1.70;;;;;;;;;;7369806;19;20010;-76
2022/09/02 11:52:25;;;;;;;3.22;1.23;;;;;;;;;;7362308;19;20021;-75
2022/09/02 11:54:59;;;;;;;3.25;1.30;;;;;;;;;;7370512;19;20030;-75
2022/09/02 11:57:24;;;;;;;4.80;1.38;;;;;;;;;;7379235;19;20003;-74
2022/09/02 11:59:50;;;;;;;2.65;1.08;;;;;;;;;;7375360;19;20651;-75
2022/09/02 12:02:36;;;;;;;6.20;1.60;;;;;;;;;;7369795;19;20038;-76
2022/09/02 12:05:20;;;;;;;2.90;1.40;;;;;;;;;;7378313;19;20018;-74
2022/09/02 12:07:46;;;;;;;3.40;1.27;;;;;;;;;;7381904;19;20006;-73
2022/09/02 12:10:31;;;;;;;6.57;1.38;;;;;;;;;;7375415;19;20006;-76
2022/09/02 12:12:58;;;;;;;3.92;1.65;;;;;;;;;;7377799;19;20658;-74
2022/09/02 12:15:23;;;;;;;7.30;1.45;;;;;;;;;;7367990;19;20047;-75
2022/09/02 12:17:48;;;;;;;10.33;1.43;;;;;;;;;;7379189;19;20344;-74
2022/09/02 12:20:32;;;;;;;3.85;1.33;;;;;;;;;;7384425;19;20014;-75
2022/09/02 12:22:58;;;;;;;6.90;1.50;;;;;;;;;;7373741;19;20035;-75
2022/09/02 12:25:24;;;;;;;4.38;1.48;;;;;;;;;;7375857;19;20082;-75
2022/09/02 12:27:49;;;;;;;7.63;1.63;;;;;;;;;;7380533;19;20066;-74
2022/09/02 12:30:35;;;;;;;4.70;1.58;;;;;;;;;;7376735;19;20007;-76
2022/09/02 12:33:11;;;;;;;6.10;1.20;;;;;;;;;;7371650;19;20557;-74
2022/09/02 12:35:39;;;;;;;3.58;1.30;;;;;;;;;;7375385;19;20018;-77
2022/09/02 12:38:10;;;;;;;3.63;1.27;;;;;;;;;;7378508;19;20070;-75
2022/09/02 12:40:38;;;;;;;4.20;1.20;;;;;;;;;;7380212;19;20034;-75
2022/09/02 12:43:05;;;;;;;4.50;1.45;;;;;;;;;;7377896;19;20027;-75
2022/09/02 12:45:31;;;;;;;5.53;1.40;;;;;;;;;;7377851;19;20010;-76
2022/09/02 12:48:09;;;;;;;4.53;1.40;;;;;;;;;;7380090;19;20435;-77
2022/09/02 12:50:54;;;;;;;3.63;1.20;;;;;;;;;;7375035;19;20006;-75
2022/09/02 12:53:24;;;;;;;5.30;1.40;;;;;;;;;;7380081;19;20459;-75
2022/09/02 12:56:25;;;;;;;5.57;1.55;;;;;;;;;;7376055;19;20017;-74
2022/09/02 12:58:52;;;;;;;5.72;1.40;;;;;;;;;;7372641;19;20346;-73
2022/09/02 13:01:28;;;;;;;4.93;1.30;;;;;;;;;;7363718;19;20021;-76
2022/09/02 13:04:05;;;;;;;6.13;1.38;;;;;;;;;;7374197;19;20011;-75
2022/09/02 13:06:30;;;;;;;5.18;1.65;;;;;;;;;;7379999;19;20023;-74
2022/09/02 13:08:55;;;;;;;3.35;1.23;;;;;;;;;;7369452;19;20939;-76
2022/09/02 13:11:30;;;;;;;4.00;1.60;;;;;;;;;;7365811;19;20006;-76
2022/09/02 13:13:58;;;;;;;3.45;1.48;;;;;;;;;;7378868;19;20010;-75
2022/09/02 13:16:53;;;;;;;3.90;1.45;;;;;;;;;;7369173;19;20369;-76
2022/09/02 13:19:44;;;;;;;5.20;1.45;;;;;;;;;;7373451;19;20160;-76
2022/09/02 13:22:28;;;;;;;5.63;1.50;;;;;;;;;;7378573;19;20768;-77
2022/09/02 13:25:06;;;;;;;4.93;1.70;;;;;;;;;;7382768;19;20024;-74
2022/09/02 13:27:44;;;;;;;3.70;1.45;;;;;;;;;;7377593;19;20365;-75
2022/09/02 13:30:09;;;;;;;5.18;1.92;;;;;;;;;;7368147;19;20010;-74
2022/09/02 13:32:34;;;;;;;4.32;1.80;;;;;;;;;;7367917;19;20006;-74
2022/09/02 13:35:01;;;;;;;5.25;1.90;;;;;;;;;;7366142;19;20007;-73
2022/09/02 13:37:27;;;;;;;6.95;1.60;;;;;;;;;;7376133;19;20009;-76
2022/09/02 13:39:52;;;;;;;4.93;1.67;;;;;;;;;;7369398;19;20922;-74
2022/09/02 13:42:18;;;;;;;5.23;1.70;;;;;;;;;;7359265;19;20007;-74
2022/09/02 13:44:44;;;;;;;6.10;1.50;;;;;;;;;;7364617;19;20664;-75
2022/09/02 13:47:16;;;;;;;5.03;1.70;;;;;;;;;;7365921;19;20019;-75
2022/09/02 13:49:43;;;;;;;3.50;1.40;;;;;;;;;;7362437;19;20802;-74
2022/09/02 13:52:14;;;;;;;7.78;1.85;;;;;;;;;;7368158;19;20493;-75
2022/09/02 13:54:42;;;;;;;5.03;1.30;;;;;;;;;;7380187;19;20019;-75
2022/09/02 13:57:09;;;;;;;4.65;1.40;;;;;;;;;;7383250;19;20025;-76
2022/09/02 13:59:55;;;;;;;3.15;1.30;;;;;;;;;;7374250;19;20025;-74
2022/09/02 14:02:30;;;;;;;4.60;1.40;;;;;;;;;;7346070;19;20321;-75
2022/09/02 14:05:04;;;;;;;3.90;1.30;;;;;;;;;;7373005;19;20034;-75
2022/09/02 14:07:40;;;;;;;3.63;1.67;;;;;;;;;;7377425;19;20470;-75
2022/09/02 14:10:07;;;;;;;4.40;1.35;;;;;;;;;;7378323;19;20018;-75
2022/09/02 14:12:33;;;;;;;5.13;1.55;;;;;;;;;;7381692;19;20023;-76
2022/09/02 14:14:59;;;;;;;4.68;1.33;;;;;;;;;;7381508;19;20027;-75
2022/09/02 14:17:25;;;;;;;4.70;1.60;;;;;;;;;;7376666;19;20349;-75
2022/09/02 14:19:51;;;;;;;6.35;1.67;;;;;;;;;;7372791;19;20046;-75
2022/09/02 14:22:24;;;;;;;5.35;1.45;;;;;;;;;;7378005;19;20029;-75
2022/09/02 14:24:49;;;;;;;;;;;;;;;;;;7371446;19;20006;-76
2022/09/02 14:27:16;;;;;;;5.35;1.60;;;;;;;;;;7379659;19;19918;-75
2022/09/02 14:29:42;;;;;;;3.95;1.30;;;;;;;;;;7380136;19;20006;-75
2022/09/02 14:32:12;;;;;;;4.22;1.50;;;;;;;;;;7368710;19;20011;-75
2022/09/02 14:34:39;;;;;;;5.45;1.33;;;;;;;;;;7376003;19;20471;-75
2022/09/02 14:37:18;;;;;;;4.90;1.23;;;;;;;;;;7375273;19;20010;-74
2022/09/02 14:39:50;;;;;;;6.80;1.67;;;;;;;;;;7366340;19;20054;-75
2022/09/02 14:42:15;;;;;;;3.55;1.40;;;;;;;;;;7350225;19;20022;-76
2022/09/02 14:44:45;;;;;;;6.33;1.70;;;;;;;;;;7351297;19;20036;-76
2022/09/02 14:47:14;;;;;;;5.93;1.50;;;;;;;;;;7342681;19;20308;-75
2022/09/02 14:49:47;;;;;;;5.03;1.30;;;;;;;;;;7365530;19;20328;-76
2022/09/02 14:52:15;;;;;;;3.97;1.40;;;;;;;;;;7365718;19;20015;-75
2022/09/02 14:54:41;;;;;;;7.82;1.38;;;;;;;;;;7362016;19;20003;-75
2022/09/02 14:57:19;;;;;;;3.63;1.40;;;;;;;;;;7353788;19;20018;-76